Time;durP1;ratioP1;P1;durP2;ratioP2;P2;SDS_P1;SDS_P2;PMS_P1;PMS_P2;Temp;Humidity;BMP_temperature;BMP_pressure;BME280_temperature;BME280_humidity;BME280_pressure;Samples;Min_cycle;Max_cycle;Signal;HPM_P1;HPM_P2
2023/05/04 00:01:00;;;;;;;11.70;7.53;;;;;;;;;;5015731;28;20516;-92
2023/05/04 00:03:27;;;;;;;15.07;7.05;;;;;;;;;;5015945;28;20049;-92
2023/05/04 00:05:55;;;;;;;10.38;6.72;;;;;;;;;;5016673;28;20050;-92
2023/05/04 00:08:22;;;;;;;9.65;6.13;;;;;;;;;;5015906;28;20049;-92
2023/05/04 00:10:49;;;;;;;12.35;6.63;;;;;;;;;;5015598;28;20054;-92
2023/05/04 00:13:17;;;;;;;11.15;6.90;;;;;;;;;;5015729;28;20056;-92
2023/05/04 00:15:44;;;;;;;12.00;6.63;;;;;;;;;;5015743;28;20281;-93
2023/05/04 00:18:12;;;;;;;8.95;6.70;;;;;;;;;;5015608;28;20042;-91
2023/05/04 00:20:39;;;;;;;11.10;7.35;;;;;;;;;;5015664;28;20104;-92
2023/05/04 00:23:07;;;;;;;11.38;6.75;;;;;;;;;;5015427;28;20057;-92
2023/05/04 00:25:34;;;;;;;13.35;7.65;;;;;;;;;;5016795;28;20409;-92
2023/05/04 00:28:01;;;;;;;10.07;7.30;;;;;;;;;;5016198;28;20048;-92
2023/05/04 00:30:29;;;;;;;8.90;7.07;;;;;;;;;;5015653;28;20133;-92
2023/05/04 00:32:56;;;;;;;12.25;7.72;;;;;;;;;;5018926;28;20421;-91
2023/05/04 00:35:24;;;;;;;7.80;7.03;;;;;;;;;;5028358;28;20054;-92
2023/05/04 00:37:51;;;;;;;8.73;7.00;;;;;;;;;;5015084;28;20054;-92
2023/05/04 00:40:18;;;;;;;11.30;7.10;;;;;;;;;;5015321;28;20133;-92
2023/05/04 00:42:46;;;;;;;9.07;7.38;;;;;;;;;;5016902;28;20140;-92
2023/05/04 00:45:14;;;;;;;9.85;7.25;;;;;;;;;;5027234;28;20076;-91
2023/05/04 00:47:42;;;;;;;11.60;6.85;;;;;;;;;;5014941;28;20144;-92
2023/05/04 00:50:10;;;;;;;9.48;6.47;;;;;;;;;;5015052;28;20054;-93
2023/05/04 00:52:39;;;;;;;9.43;7.07;;;;;;;;;;5014690;28;20074;-92
2023/05/04 00:55:07;;;;;;;10.00;6.72;;;;;;;;;;5014165;28;20058;-92
2023/05/04 00:57:35;;;;;;;9.95;6.50;;;;;;;;;;5014895;28;20581;-92
2023/05/04 01:00:02;;;;;;;13.30;7.53;;;;;;;;;;5014626;28;20077;-92
2023/05/04 01:02:30;;;;;;;9.80;6.50;;;;;;;;;;5014776;28;20046;-92
2023/05/04 01:04:58;;;;;;;36.33;9.75;;;;;;;;;;5014562;28;20049;-92
2023/05/04 01:07:30;;;;;;;11.60;6.72;;;;;;;;;;5014769;28;20060;-91
2023/05/04 01:10:10;;;;;;;9.20;6.30;;;;;;;;;;5014631;28;20095;-92
2023/05/04 01:12:40;;;;;;;11.68;6.55;;;;;;;;;;5014358;28;20145;-92
2023/05/04 01:15:09;;;;;;;10.60;7.00;;;;;;;;;;5016332;28;20052;-92
2023/05/04 01:17:36;;;;;;;9.43;6.45;;;;;;;;;;5014655;28;20052;-92
2023/05/04 01:20:04;;;;;;;7.70;6.72;;;;;;;;;;5014842;28;20134;-92
2023/05/04 01:22:32;;;;;;;7.45;6.25;;;;;;;;;;5014176;28;20089;-92
2023/05/04 01:25:00;;;;;;;9.18;7.50;;;;;;;;;;5014401;28;20145;-92
2023/05/04 01:27:42;;;;;;;8.88;6.55;;;;;;;;;;5014196;28;20054;-92
2023/05/04 01:30:21;;;;;;;9.75;7.25;;;;;;;;;;5014495;28;20133;-92
2023/05/04 01:32:49;;;;;;;12.68;7.75;;;;;;;;;;5014079;28;20060;-92
2023/05/04 01:35:16;;;;;;;13.27;8.13;;;;;;;;;;5014031;28;20387;-92
2023/05/04 01:37:44;;;;;;;9.15;6.85;;;;;;;;;;5013813;28;20060;-92
2023/05/04 01:40:11;;;;;;;10.18;7.40;;;;;;;;;;5014044;28;20067;-92
2023/05/04 01:42:39;;;;;;;11.75;7.68;;;;;;;;;;5013924;28;20144;-92
2023/05/04 01:45:07;;;;;;;10.02;8.05;;;;;;;;;;5014074;28;20566;-92
2023/05/04 01:47:34;;;;;;;15.82;7.80;;;;;;;;;;5014072;28;20062;-92
2023/05/04 01:50:02;;;;;;;14.15;7.80;;;;;;;;;;5013857;28;20060;-92
2023/05/04 01:52:29;;;;;;;12.15;8.27;;;;;;;;;;5014354;28;20056;-92
2023/05/04 01:54:57;;;;;;;10.75;7.68;;;;;;;;;;5013921;28;20076;-92
2023/05/04 01:57:24;;;;;;;10.38;7.30;;;;;;;;;;5016143;28;20140;-92
2023/05/04 01:59:51;;;;;;;7.20;6.53;;;;;;;;;;5032013;28;20053;-91
2023/05/04 02:02:19;;;;;;;12.55;7.38;;;;;;;;;;5014102;28;20058;-92
2023/05/04 02:04:46;;;;;;;10.57;8.60;;;;;;;;;;5013296;28;20525;-92
2023/05/04 02:07:13;;;;;;;12.32;7.53;;;;;;;;;;5012117;28;20133;-93
2023/05/04 02:09:41;;;;;;;9.45;6.88;;;;;;;;;;5013325;28;20050;-92
2023/05/04 02:12:08;;;;;;;16.27;7.68;;;;;;;;;;5013303;28;20057;-92
2023/05/04 02:14:35;;;;;;;13.35;7.47;;;;;;;;;;5013277;28;20050;-92
2023/05/04 02:17:02;;;;;;;12.05;7.03;;;;;;;;;;5013336;28;20060;-92
2023/05/04 02:19:30;;;;;;;8.57;7.03;;;;;;;;;;5013002;28;20041;-92
2023/05/04 02:21:57;;;;;;;9.38;7.40;;;;;;;;;;5012912;28;20062;-92
2023/05/04 02:24:25;;;;;;;11.82;7.30;;;;;;;;;;5013173;28;20046;-92
2023/05/04 02:26:52;;;;;;;11.45;8.02;;;;;;;;;;5013242;28;20145;-92
2023/05/04 02:29:20;;;;;;;13.70;8.43;;;;;;;;;;5013098;28;20073;-92
2023/05/04 02:31:47;;;;;;;11.65;7.47;;;;;;;;;;5012853;28;20136;-92
2023/05/04 02:34:15;;;;;;;9.55;7.85;;;;;;;;;;5013152;28;20069;-92
2023/05/04 02:36:42;;;;;;;15.80;7.93;;;;;;;;;;5014839;28;20042;-92
2023/05/04 02:39:09;;;;;;;11.95;7.88;;;;;;;;;;5013087;28;20053;-92
2023/05/04 02:41:37;;;;;;;9.48;7.95;;;;;;;;;;5012820;28;20140;-92
2023/05/04 02:44:04;;;;;;;12.27;7.40;;;;;;;;;;5013069;28;20060;-92
2023/05/04 02:46:32;;;;;;;13.32;8.43;;;;;;;;;;5021336;28;20073;-92
2023/05/04 02:48:59;;;;;;;10.25;7.63;;;;;;;;;;5016436;28;20046;-92
2023/05/04 02:51:27;;;;;;;15.27;8.23;;;;;;;;;;5012784;28;20064;-92
2023/05/04 02:53:54;;;;;;;11.25;7.55;;;;;;;;;;5012637;28;20095;-92
2023/05/04 02:56:23;;;;;;;13.07;8.50;;;;;;;;;;5012996;28;20054;-92
2023/05/04 02:58:50;;;;;;;10.50;8.10;;;;;;;;;;5012666;28;20107;-92
2023/05/04 03:01:17;;;;;;;13.52;7.60;;;;;;;;;;5012865;28;20169;-93
2023/05/04 03:03:45;;;;;;;11.60;7.75;;;;;;;;;;5013764;28;20517;-92
2023/05/04 03:06:12;;;;;;;17.00;7.95;;;;;;;;;;5012983;28;20449;-92
2023/05/04 03:08:40;;;;;;;9.68;7.55;;;;;;;;;;5012977;28;20406;-92
2023/05/04 03:11:07;;;;;;;8.70;7.60;;;;;;;;;;5013630;28;20050;-92
2023/05/04 03:13:35;;;;;;;9.63;7.85;;;;;;;;;;5024007;28;20050;-92
2023/05/04 03:16:02;;;;;;;12.13;7.53;;;;;;;;;;5022020;28;20077;-92
2023/05/04 03:18:30;;;;;;;12.07;7.93;;;;;;;;;;5012647;28;20046;-92
2023/05/04 03:21:14;;;;;;;9.75;7.60;;;;;;;;;;5013188;28;20061;-92
2023/05/04 03:23:42;;;;;;;12.10;7.85;;;;;;;;;;5012245;28;20049;-92
2023/05/04 03:26:11;;;;;;;10.85;7.75;;;;;;;;;;5012842;28;20053;-92
2023/05/04 03:28:38;;;;;;;13.05;8.32;;;;;;;;;;5012228;28;20132;-91
2023/05/04 03:31:06;;;;;;;13.38;8.65;;;;;;;;;;5012851;28;20054;-92
2023/05/04 03:33:33;;;;;;;11.98;8.50;;;;;;;;;;5012654;28;20551;-92
2023/05/04 03:36:00;;;;;;;16.02;9.35;;;;;;;;;;5012095;28;20052;-92
2023/05/04 03:38:28;;;;;;;17.45;9.68;;;;;;;;;;5012420;28;20050;-92
2023/05/04 03:40:55;;;;;;;15.00;9.95;;;;;;;;;;5012337;28;20138;-92
2023/05/04 03:43:22;;;;;;;12.43;9.32;;;;;;;;;;5012396;28;20062;-92
2023/05/04 03:45:49;;;;;;;13.93;9.85;;;;;;;;;;5012373;28;20052;-92
2023/05/04 03:48:17;;;;;;;15.50;9.25;;;;;;;;;;5011778;28;20561;-92
2023/05/04 03:50:45;;;;;;;13.35;8.82;;;;;;;;;;5012058;28;20054;-92
2023/05/04 03:53:12;;;;;;;13.43;9.75;;;;;;;;;;5012223;28;20414;-91
2023/05/04 03:55:40;;;;;;;15.52;10.13;;;;;;;;;;5011870;28;20566;-92
2023/05/04 03:58:07;;;;;;;19.45;14.57;;;;;;;;;;5012083;28;20050;-92
2023/05/04 04:00:35;;;;;;;24.25;15.13;;;;;;;;;;5014857;28;20060;-92
2023/05/04 04:03:02;;;;;;;22.00;16.77;;;;;;;;;;5015735;28;20545;-92
2023/05/04 04:05:30;;;;;;;17.85;12.65;;;;;;;;;;5015336;28;20050;-92
2023/05/04 04:07:57;;;;;;;17.02;11.82;;;;;;;;;;5015795;28;20104;-92
2023/05/04 04:10:25;;;;;;;16.27;12.40;;;;;;;;;;5015641;28;20384;-92
2023/05/04 04:12:53;;;;;;;17.48;11.40;;;;;;;;;;5015936;28;20107;-92
2023/05/04 04:15:20;;;;;;;18.23;11.52;;;;;;;;;;5015846;28;20132;-91
2023/05/04 04:17:48;;;;;;;13.60;10.93;;;;;;;;;;5015824;28;20129;-92
2023/05/04 04:20:15;;;;;;;16.15;10.90;;;;;;;;;;5015530;28;20081;-92
2023/05/04 04:22:43;;;;;;;19.73;11.25;;;;;;;;;;5015447;28;20062;-91
2023/05/04 04:25:11;;;;;;;15.60;11.43;;;;;;;;;;5016374;28;20046;-92
2023/05/04 04:27:38;;;;;;;18.58;11.40;;;;;;;;;;5030426;28;20086;-92
2023/05/04 04:30:06;;;;;;;15.68;11.73;;;;;;;;;;5016856;28;20141;-92
2023/05/04 04:32:33;;;;;;;19.58;12.27;;;;;;;;;;5015053;28;20522;-92
2023/05/04 04:35:01;;;;;;;15.73;12.52;;;;;;;;;;5015167;28;20533;-92
2023/05/04 04:37:28;;;;;;;15.93;12.10;;;;;;;;;;5015319;28;20049;-92
2023/05/04 04:39:55;;;;;;;18.67;13.73;;;;;;;;;;5015280;28;20137;-91
2023/05/04 04:42:23;;;;;;;20.90;15.40;;;;;;;;;;5014765;28;20092;-92
2023/05/04 04:44:51;;;;;;;39.15;25.33;;;;;;;;;;5016187;28;20053;-92
2023/05/04 04:47:18;;;;;;;51.60;32.40;;;;;;;;;;5015051;28;20396;-92
2023/05/04 04:49:46;;;;;;;31.35;21.77;;;;;;;;;;5015042;28;20058;-92
2023/05/04 04:52:13;;;;;;;53.08;36.65;;;;;;;;;;5015081;28;20803;-92
2023/05/04 04:54:41;;;;;;;34.53;24.25;;;;;;;;;;5014910;28;20068;-92
2023/05/04 04:57:09;;;;;;;37.45;28.65;;;;;;;;;;5015527;28;20053;-92
2023/05/04 04:59:36;;;;;;;32.70;21.13;;;;;;;;;;5018069;28;20128;-92
2023/05/04 05:02:04;;;;;;;43.58;29.20;;;;;;;;;;5019765;28;20068;-92
2023/05/04 05:04:31;;;;;;;27.48;19.98;;;;;;;;;;5014719;28;20050;-92
2023/05/04 05:06:59;;;;;;;41.60;26.30;;;;;;;;;;5014952;28;20065;-92
2023/05/04 05:09:26;;;;;;;32.00;20.75;;;;;;;;;;5014731;28;20144;-92
2023/05/04 05:11:53;;;;;;;23.38;17.90;;;;;;;;;;5014095;28;20395;-91
2023/05/04 05:14:21;;;;;;;26.50;17.38;;;;;;;;;;5014655;28;20056;-92
2023/05/04 05:16:48;;;;;;;20.23;13.90;;;;;;;;;;5014351;28;20088;-92
2023/05/04 05:19:16;;;;;;;15.00;10.80;;;;;;;;;;5015026;28;20050;-92
2023/05/04 05:21:43;;;;;;;16.73;10.68;;;;;;;;;;5014141;28;20141;-92
2023/05/04 05:24:10;;;;;;;12.23;8.98;;;;;;;;;;5014666;28;20054;-92
2023/05/04 05:26:38;;;;;;;8.38;6.90;;;;;;;;;;5014493;28;20057;-93
2023/05/04 05:29:05;;;;;;;10.02;6.25;;;;;;;;;;5014644;28;20133;-93
2023/05/04 05:31:32;;;;;;;8.00;4.53;;;;;;;;;;5014561;28;20049;-92
2023/05/04 05:34:00;;;;;;;5.03;3.80;;;;;;;;;;5014294;28;20136;-93
2023/05/04 05:36:28;;;;;;;5.53;3.75;;;;;;;;;;5014490;28;20149;-93
2023/05/04 05:38:55;;;;;;;7.55;3.58;;;;;;;;;;5014481;28;20574;-93
2023/05/04 05:41:22;;;;;;;5.45;4.35;;;;;;;;;;5016121;28;20050;-93
2023/05/04 05:43:50;;;;;;;10.65;6.85;;;;;;;;;;5027194;28;20057;-93
2023/05/04 05:46:17;;;;;;;6.97;4.85;;;;;;;;;;5018061;28;20046;-93
2023/05/04 05:48:44;;;;;;;4.63;4.03;;;;;;;;;;5014401;28;20056;-92
2023/05/04 05:51:11;;;;;;;10.70;5.15;;;;;;;;;;5014472;28;20054;-93
2023/05/04 05:53:39;;;;;;;7.32;4.10;;;;;;;;;;5014334;28;20056;-92
2023/05/04 05:56:06;;;;;;;4.65;4.05;;;;;;;;;;5014414;28;20062;-93
2023/05/04 05:58:34;;;;;;;7.90;4.05;;;;;;;;;;5014296;28;20060;-93
2023/05/04 06:01:01;;;;;;;5.78;3.15;;;;;;;;;;5015413;28;20053;-92
2023/05/04 06:03:28;;;;;;;6.75;2.97;;;;;;;;;;5014312;28;20049;-92
2023/05/04 06:05:55;;;;;;;5.15;2.70;;;;;;;;;;5014383;28;20132;-93
2023/05/04 06:08:23;;;;;;;3.10;2.72;;;;;;;;;;5015072;28;20557;-93
2023/05/04 06:10:50;;;;;;;3.00;2.55;;;;;;;;;;5014255;28;20066;-93
2023/05/04 06:13:17;;;;;;;7.03;3.05;;;;;;;;;;5013829;28;20508;-93
2023/05/04 06:15:52;;;;;;;6.97;2.75;;;;;;;;;;5013916;28;20057;-92
2023/05/04 06:18:20;;;;;;;3.65;2.65;;;;;;;;;;5014701;28;20482;-93
2023/05/04 06:20:47;;;;;;;6.05;2.55;;;;;;;;;;5015213;28;20053;-92
2023/05/04 06:23:15;;;;;;;8.63;3.20;;;;;;;;;;5014259;28;20081;-93
2023/05/04 06:25:42;;;;;;;6.05;2.60;;;;;;;;;;5014168;28;20046;-94
2023/05/04 06:28:09;;;;;;;10.52;2.85;;;;;;;;;;5013709;28;20056;-92
2023/05/04 06:30:37;;;;;;;6.05;2.67;;;;;;;;;;5013840;28;20056;-93
2023/05/04 06:33:04;;;;;;;3.90;2.80;;;;;;;;;;5013703;28;20049;-94
2023/05/04 06:35:32;;;;;;;6.97;3.00;;;;;;;;;;5014737;28;20145;-94
2023/05/04 06:37:59;;;;;;;7.18;3.22;;;;;;;;;;5014408;28;20133;-93
2023/05/04 06:40:27;;;;;;;3.35;2.53;;;;;;;;;;5014088;28;20066;-93
2023/05/04 06:42:54;;;;;;;3.42;2.58;;;;;;;;;;5014916;28;20050;-93
2023/05/04 06:45:21;;;;;;;4.13;2.53;;;;;;;;;;5014145;28;20068;-93
2023/05/04 06:47:49;;;;;;;7.45;3.03;;;;;;;;;;5014873;28;20060;-93
2023/05/04 06:50:16;;;;;;;6.60;2.42;;;;;;;;;;5014242;28;20096;-93
2023/05/04 06:52:45;;;;;;;3.58;2.03;;;;;;;;;;5013752;28;20049;-93
2023/05/04 06:55:12;;;;;;;5.15;2.53;;;;;;;;;;5015321;28;20141;-91
2023/05/04 06:57:40;;;;;;;2.72;2.00;;;;;;;;;;5028959;28;20057;-91
2023/05/04 07:00:08;;;;;;;6.72;2.13;;;;;;;;;;5029417;28;20054;-92
2023/05/04 07:02:36;;;;;;;8.07;2.72;;;;;;;;;;5014187;28;20053;-92
2023/05/04 07:05:03;;;;;;;5.93;2.30;;;;;;;;;;5013300;28;20053;-91
2023/05/04 07:07:30;;;;;;;4.57;2.38;;;;;;;;;;5013299;28;20057;-91
2023/05/04 07:09:58;;;;;;;5.57;1.90;;;;;;;;;;5014550;28;20057;-92
2023/05/04 07:12:25;;;;;;;4.13;2.00;;;;;;;;;;5013296;28;20052;-91
2023/05/04 07:14:52;;;;;;;10.30;2.47;;;;;;;;;;5023770;28;20081;-91
2023/05/04 07:17:20;;;;;;;4.03;1.80;;;;;;;;;;5018587;28;20052;-90
2023/05/04 07:19:51;;;;;;;3.95;2.00;;;;;;;;;;5012939;28;20134;-90
2023/05/04 07:22:19;;;;;;;8.52;2.00;;;;;;;;;;5013060;28;20060;-91
2023/05/04 07:24:46;;;;;;;7.10;2.05;;;;;;;;;;5013278;28;20101;-91
2023/05/04 07:27:14;;;;;;;8.43;1.98;;;;;;;;;;5015948;28;20137;-91
2023/05/04 07:29:41;;;;;;;8.93;2.22;;;;;;;;;;5012406;28;20132;-90
2023/05/04 07:32:09;;;;;;;8.23;2.40;;;;;;;;;;5012693;28;20494;-90
2023/05/04 07:34:36;;;;;;;8.27;3.00;;;;;;;;;;5013769;28;20053;-89
2023/05/04 07:37:12;;;;;;;16.52;2.72;;;;;;;;;;5016266;28;20046;-90
2023/05/04 07:39:40;;;;;;;10.45;2.78;;;;;;;;;;5016890;28;20046;-90
2023/05/04 07:42:08;;;;;;;4.70;2.00;;;;;;;;;;5015623;28;20060;-91
2023/05/04 07:44:35;;;;;;;6.38;2.00;;;;;;;;;;5016329;28;20081;-90
2023/05/04 07:47:02;;;;;;;7.68;2.40;;;;;;;;;;5017606;28;20049;-90
2023/05/04 07:49:30;;;;;;;6.57;2.08;;;;;;;;;;5016136;28;20046;-90
2023/05/04 07:51:57;;;;;;;6.13;2.00;;;;;;;;;;5016657;28;20053;-90
2023/05/04 07:54:27;;;;;;;7.20;2.15;;;;;;;;;;5016486;28;20053;-90
2023/05/04 07:56:54;;;;;;;5.45;2.00;;;;;;;;;;5016171;28;20495;-91
2023/05/04 07:59:22;;;;;;;4.85;1.98;;;;;;;;;;5016064;28;20056;-90
2023/05/04 08:01:49;;;;;;;3.80;1.77;;;;;;;;;;5016814;28;20057;-91
2023/05/04 08:04:16;;;;;;;5.82;2.10;;;;;;;;;;5017016;28;20100;-91
2023/05/04 08:06:44;;;;;;;12.55;2.30;;;;;;;;;;5016042;28;20407;-91
2023/05/04 08:09:11;;;;;;;4.82;1.73;;;;;;;;;;5016565;28;20054;-91
2023/05/04 08:11:39;;;;;;;12.15;2.05;;;;;;;;;;5025636;28;20029;-91
2023/05/04 08:14:06;;;;;;;4.38;1.95;;;;;;;;;;5032181;28;20117;-90
2023/05/04 08:16:33;;;;;;;3.70;1.80;;;;;;;;;;5017016;28;20048;-91
2023/05/04 08:19:01;;;;;;;4.25;1.70;;;;;;;;;;5016216;28;20050;-91
2023/05/04 08:21:28;;;;;;;6.97;1.88;;;;;;;;;;5015524;28;20502;-91
2023/05/04 08:23:55;;;;;;;4.82;1.40;;;;;;;;;;5015923;28;20083;-90
2023/05/04 08:26:23;;;;;;;2.72;1.50;;;;;;;;;;5016601;28;20057;-91
2023/05/04 08:28:50;;;;;;;5.75;1.30;;;;;;;;;;5015568;28;20050;-90
2023/05/04 08:31:18;;;;;;;5.60;1.60;;;;;;;;;;5015843;28;20053;-90
2023/05/04 08:33:45;;;;;;;3.50;1.55;;;;;;;;;;5015939;28;20104;-90
2023/05/04 08:36:12;;;;;;;4.43;1.33;;;;;;;;;;5016300;28;20471;-90
2023/05/04 08:38:40;;;;;;;6.97;1.40;;;;;;;;;;5015936;28;20101;-89
2023/05/04 08:41:07;;;;;;;3.80;1.40;;;;;;;;;;5016669;28;20073;-88
2023/05/04 08:43:35;;;;;;;2.67;1.10;;;;;;;;;;5015075;28;20137;-86
2023/05/04 08:46:03;;;;;;;2.75;1.15;;;;;;;;;;5014372;28;20129;-87
2023/05/04 08:48:32;;;;;;;5.63;1.35;;;;;;;;;;5015667;28;20562;-91
2023/05/04 08:51:00;;;;;;;5.68;1.25;;;;;;;;;;5015590;28;20070;-90
2023/05/04 08:53:29;;;;;;;3.60;1.20;;;;;;;;;;5015235;28;20123;-92
2023/05/04 08:56:02;;;;;;;5.82;1.77;;;;;;;;;;5014982;28;20060;-89
2023/05/04 08:58:31;;;;;;;3.45;1.50;;;;;;;;;;5016081;28;20057;-90
2023/05/04 09:00:59;;;;;;;4.75;1.40;;;;;;;;;;5016085;28;20046;-89
2023/05/04 09:03:27;;;;;;;3.30;1.45;;;;;;;;;;5015179;28;20053;-90
2023/05/04 09:05:55;;;;;;;5.30;1.20;;;;;;;;;;5014685;28;20483;-90
2023/05/04 09:08:22;;;;;;;2.33;1.27;;;;;;;;;;5014934;28;20064;-90
2023/05/04 09:10:52;;;;;;;2.65;1.23;;;;;;;;;;5015179;28;20072;-90
2023/05/04 09:13:19;;;;;;;1.42;1.17;;;;;;;;;;5014826;28;20056;-92
2023/05/04 09:15:56;;;;;;;4.50;1.30;;;;;;;;;;5014481;28;20080;-90
2023/05/04 09:18:34;;;;;;;3.33;1.20;;;;;;;;;;5014819;28;20140;-88
2023/05/04 09:21:02;;;;;;;1.85;1.13;;;;;;;;;;5014816;28;20049;-88
2023/05/04 09:23:29;;;;;;;1.35;1.25;;;;;;;;;;5014594;28;20082;-87
2023/05/04 09:25:56;;;;;;;2.15;0.82;;;;;;;;;;5024652;28;20053;-88
2023/05/04 09:28:34;;;;;;;1.38;1.05;;;;;;;;;;5026208;28;20054;-90
2023/05/04 09:31:02;;;;;;;1.58;0.95;;;;;;;;;;5022617;28;20107;-88
2023/05/04 09:33:30;;;;;;;1.73;0.90;;;;;;;;;;5014638;28;20546;-90
2023/05/04 09:35:59;;;;;;;5.22;1.27;;;;;;;;;;5014745;28;20394;-87
2023/05/04 09:38:27;;;;;;;4.90;1.20;;;;;;;;;;5014661;28;20073;-88
2023/05/04 09:40:54;;;;;;;3.50;0.90;;;;;;;;;;5014338;28;20140;-89
2023/05/04 09:43:23;;;;;;;4.07;1.38;;;;;;;;;;5013927;28;20061;-86
2023/05/04 09:45:50;;;;;;;5.57;1.05;;;;;;;;;;5014001;28;20052;-87
2023/05/04 09:48:24;;;;;;;3.67;1.00;;;;;;;;;;5014055;28;20117;-88
2023/05/04 09:50:56;;;;;;;2.10;1.30;;;;;;;;;;5014352;28;20054;-91
2023/05/04 09:53:24;;;;;;;3.05;1.20;;;;;;;;;;5014695;28;20078;-88
2023/05/04 09:56:10;;;;;;;1.45;1.23;;;;;;;;;;5014495;28;20049;-89
2023/05/04 09:58:37;;;;;;;1.88;1.30;;;;;;;;;;5013781;28;20200;-90
2023/05/04 10:01:05;;;;;;;26.90;4.22;;;;;;;;;;5014790;28;20521;-89
2023/05/04 10:03:32;;;;;;;4.60;1.90;;;;;;;;;;5017014;28;20129;-90
2023/05/04 10:06:02;;;;;;;3.30;1.13;;;;;;;;;;5015367;28;20150;-89
2023/05/04 10:08:29;;;;;;;3.85;1.10;;;;;;;;;;5013809;28;20140;-88
2023/05/04 10:10:56;;;;;;;3.15;1.10;;;;;;;;;;5013754;28;20058;-88
2023/05/04 10:13:26;;;;;;;3.22;1.30;;;;;;;;;;5014108;28;20045;-89
2023/05/04 10:16:09;;;;;;;3.38;1.45;;;;;;;;;;5013738;28;20058;-88
2023/05/04 10:18:54;;;;;;;7.05;1.17;;;;;;;;;;5013615;28;20383;-90
2023/05/04 10:21:22;;;;;;;2.15;0.90;;;;;;;;;;5013443;28;20059;-90
2023/05/04 10:23:58;;;;;;;2.40;1.00;;;;;;;;;;4974113;28;20046;-89
2023/05/04 10:26:49;;;;;;;2.65;1.00;;;;;;;;;;4974308;28;20051;-88
2023/05/04 10:29:24;;;;;;;1.60;0.93;;;;;;;;;;4974400;28;20138;-89
2023/05/04 10:31:52;;;;;;;3.28;1.00;;;;;;;;;;4974327;28;20051;-90
2023/05/04 10:34:24;;;;;;;3.70;1.10;;;;;;;;;;4974409;28;20050;-89
2023/05/04 10:36:51;;;;;;;1.38;1.00;;;;;;;;;;4974377;28;20050;-88
2023/05/04 10:39:19;;;;;;;2.33;1.13;;;;;;;;;;4974773;28;20054;-90
2023/05/04 10:42:03;;;;;;;2.08;0.90;;;;;;;;;;4989542;28;20054;-89
2023/05/04 10:44:30;;;;;;;;;;;;;;;;;;4978088;28;20491;-89
2023/05/04 10:46:58;;;;;;;1.77;0.88;;;;;;;;;;4990775;28;19933;-89
2023/05/04 10:49:26;;;;;;;2.50;0.82;;;;;;;;;;4974019;28;20058;-88
2023/05/04 10:52:06;;;;;;;2.55;0.70;;;;;;;;;;4974031;28;20061;-89
2023/05/04 10:54:35;;;;;;;1.83;0.95;;;;;;;;;;4973902;28;20562;-88
2023/05/04 10:57:03;;;;;;;2.83;0.80;;;;;;;;;;4974039;28;20412;-88
2023/05/04 10:59:31;;;;;;;2.45;0.98;;;;;;;;;;4974286;28;20051;-89
2023/05/04 11:02:00;;;;;;;6.78;1.00;;;;;;;;;;4974426;28;20047;-90
2023/05/04 11:04:28;;;;;;;2.58;0.80;;;;;;;;;;4973777;28;20579;-89
2023/05/04 11:06:56;;;;;;;4.85;1.15;;;;;;;;;;4974390;28;20051;-87
2023/05/04 11:09:25;;;;;;;7.35;1.40;;;;;;;;;;4974082;28;20077;-88
2023/05/04 11:11:53;;;;;;;4.85;1.23;;;;;;;;;;4978224;28;20237;-90
2023/05/04 11:14:24;;;;;;;1.90;0.80;;;;;;;;;;4978147;28;20519;-88
2023/05/04 11:16:52;;;;;;;1.70;0.90;;;;;;;;;;4977508;28;20050;-89
2023/05/04 11:19:20;;;;;;;1.00;0.90;;;;;;;;;;4977945;28;20058;-88
2023/05/04 11:21:47;;;;;;;2.80;1.08;;;;;;;;;;4983767;28;20064;-88
2023/05/04 11:24:14;;;;;;;1.95;1.05;;;;;;;;;;5016322;28;20057;-88
2023/05/04 11:26:47;;;;;;;2.08;1.23;;;;;;;;;;5016408;28;20046;-89
2023/05/04 11:29:15;;;;;;;2.15;1.05;;;;;;;;;;5016371;28;20100;-87
2023/05/04 11:31:52;;;;;;;2.05;1.05;;;;;;;;;;5016423;28;20064;-89
2023/05/04 11:34:20;;;;;;;1.85;0.77;;;;;;;;;;5016481;28;20061;-88
2023/05/04 11:36:48;;;;;;;6.40;1.20;;;;;;;;;;5016385;28;20061;-88
2023/05/04 11:39:16;;;;;;;3.10;1.00;;;;;;;;;;5016338;28;20572;-88
2023/05/04 11:41:43;;;;;;;3.28;1.00;;;;;;;;;;5019708;28;20046;-88
2023/05/04 11:44:11;;;;;;;7.57;1.00;;;;;;;;;;5016368;28;20054;-90
2023/05/04 11:46:38;;;;;;;7.57;1.20;;;;;;;;;;5016584;28;20068;-88
2023/05/04 11:49:06;;;;;;;2.72;1.00;;;;;;;;;;5016116;28;20054;-89
2023/05/04 11:51:33;;;;;;;1.77;1.00;;;;;;;;;;5017244;28;20054;-88
2023/05/04 11:54:00;;;;;;;2.25;0.98;;;;;;;;;;5017214;28;20080;-88
2023/05/04 11:56:28;;;;;;;2.05;1.10;;;;;;;;;;5028275;28;20081;-89
2023/05/04 11:58:55;;;;;;;2.30;0.90;;;;;;;;;;5029519;28;20042;-90
2023/05/04 12:01:22;;;;;;;3.08;1.00;;;;;;;;;;5015736;28;20092;-88
2023/05/04 12:03:54;;;;;;;2.50;0.95;;;;;;;;;;5016013;28;20056;-87
2023/05/04 12:06:31;;;;;;;4.40;1.20;;;;;;;;;;5015796;28;20078;-88
2023/05/04 12:09:04;;;;;;;1.83;0.90;;;;;;;;;;5015999;28;20060;-90
2023/05/04 12:11:32;;;;;;;3.90;1.38;;;;;;;;;;5016881;28;20046;-90
2023/05/04 12:14:06;;;;;;;1.30;0.90;;;;;;;;;;5016481;28;20049;-88
2023/05/04 12:16:33;;;;;;;2.88;1.00;;;;;;;;;;5016461;28;20085;-89
2023/05/04 12:19:07;;;;;;;4.40;1.08;;;;;;;;;;5016594;28;20045;-87
2023/05/04 12:21:35;;;;;;;3.40;0.82;;;;;;;;;;5015069;28;20155;-86
2023/05/04 12:24:03;;;;;;;2.20;1.02;;;;;;;;;;5015369;28;20057;-88
2023/05/04 12:26:30;;;;;;;4.80;1.00;;;;;;;;;;5016258;28;20096;-87
2023/05/04 12:28:57;;;;;;;1.48;0.93;;;;;;;;;;5015199;28;20042;-87
2023/05/04 12:31:25;;;;;;;3.33;0.80;;;;;;;;;;5015144;28;20050;-88
2023/05/04 12:33:53;;;;;;;2.05;0.98;;;;;;;;;;5015003;28;20053;-87
2023/05/04 12:36:21;;;;;;;2.05;0.77;;;;;;;;;;5014965;28;20049;-88
2023/05/04 12:38:48;;;;;;;2.13;0.65;;;;;;;;;;5015957;28;20133;-89
2023/05/04 12:41:15;;;;;;;2.50;0.80;;;;;;;;;;5015999;28;20050;-88
2023/05/04 12:43:42;;;;;;;1.67;0.75;;;;;;;;;;5015284;28;20065;-87
2023/05/04 12:46:10;;;;;;;5.43;1.00;;;;;;;;;;5014775;28;20052;-88
2023/05/04 12:48:37;;;;;;;3.53;0.90;;;;;;;;;;5016643;28;20053;-92
2023/05/04 12:51:05;;;;;;;1.45;0.90;;;;;;;;;;5017733;28;20611;-90
2023/05/04 12:53:35;;;;;;;2.95;0.70;;;;;;;;;;5015724;28;20136;-91
2023/05/04 12:56:02;;;;;;;3.72;0.70;;;;;;;;;;5016485;28;20510;-91
2023/05/04 12:58:30;;;;;;;3.65;1.30;;;;;;;;;;5018436;28;20125;-92
2023/05/04 13:00:57;;;;;;;8.95;1.42;;;;;;;;;;5022580;28;20052;-91
2023/05/04 13:03:25;;;;;;;0.95;0.80;;;;;;;;;;5019704;28;20133;-91
2023/05/04 13:05:52;;;;;;;3.45;0.90;;;;;;;;;;5020156;28;20053;-92
2023/05/04 13:08:20;;;;;;;1.23;0.82;;;;;;;;;;5022606;28;20046;-92
2023/05/04 13:10:47;;;;;;;1.48;1.10;;;;;;;;;;5019640;28;20481;-89
2023/05/04 13:13:16;;;;;;;1.23;0.90;;;;;;;;;;5032658;28;20054;-90
2023/05/04 13:15:44;;;;;;;11.38;1.52;;;;;;;;;;5024210;28;20050;-91
2023/05/04 13:18:11;;;;;;;4.45;1.02;;;;;;;;;;5016194;28;20042;-91
2023/05/04 13:20:39;;;;;;;4.05;1.30;;;;;;;;;;5015474;28;20077;-86
2023/05/04 13:23:07;;;;;;;1.90;0.77;;;;;;;;;;5015453;28;20521;-89
2023/05/04 13:25:34;;;;;;;2.58;1.30;;;;;;;;;;5014201;28;20554;-85
2023/05/04 13:28:01;;;;;;;3.75;0.93;;;;;;;;;;5014070;28;20050;-86
2023/05/04 13:30:29;;;;;;;2.20;1.10;;;;;;;;;;5014043;28;20144;-86
2023/05/04 13:32:56;;;;;;;1.27;1.00;;;;;;;;;;5013615;28;20108;-86
2023/05/04 13:35:24;;;;;;;1.67;0.88;;;;;;;;;;5013869;28;20058;-86
2023/05/04 13:37:51;;;;;;;3.10;1.02;;;;;;;;;;5014030;28;20136;-87
2023/05/04 13:40:18;;;;;;;2.15;1.00;;;;;;;;;;5013940;28;20057;-86
2023/05/04 13:42:45;;;;;;;4.35;1.85;;;;;;;;;;5013931;28;20076;-86
2023/05/04 13:45:13;;;;;;;2.03;0.90;;;;;;;;;;5013707;28;20050;-86
2023/05/04 13:47:40;;;;;;;3.63;0.80;;;;;;;;;;5013883;28;20076;-87
2023/05/04 13:50:08;;;;;;;6.25;1.75;;;;;;;;;;5015407;28;20049;-86
2023/05/04 13:52:35;;;;;;;7.72;3.50;;;;;;;;;;5015206;28;20049;-86
2023/05/04 13:55:03;;;;;;;6.25;3.45;;;;;;;;;;5014307;28;20049;-88
2023/05/04 13:57:31;;;;;;;1.50;0.82;;;;;;;;;;5013739;28;20057;-88
2023/05/04 13:59:58;;;;;;;47.83;22.33;;;;;;;;;;5013463;28;20050;-87
2023/05/04 14:02:34;;;;;;;3.88;1.65;;;;;;;;;;5013500;28;20050;-88
2023/05/04 14:05:02;;;;;;;7.88;0.90;;;;;;;;;;5013264;28;20096;-88
2023/05/04 14:07:30;;;;;;;5.50;2.58;;;;;;;;;;5011275;28;20092;-88
2023/05/04 14:09:58;;;;;;;6.30;1.65;;;;;;;;;;5014633;28;20050;-87
2023/05/04 14:12:26;;;;;;;57.75;28.13;;;;;;;;;;5013106;28;20092;-87
2023/05/04 14:14:53;;;;;;;39.30;21.58;;;;;;;;;;5012870;28;20129;-87
2023/05/04 14:17:21;;;;;;;9.65;7.18;;;;;;;;;;5012897;28;20414;-85
2023/05/04 14:19:48;;;;;;;16.00;10.75;;;;;;;;;;5013077;28;20157;-87
2023/05/04 14:22:16;;;;;;;6.70;4.32;;;;;;;;;;5014084;28;20496;-87
2023/05/04 14:24:43;;;;;;;2.72;2.47;;;;;;;;;;5012841;28;20056;-86
2023/05/04 14:27:10;;;;;;;4.47;2.85;;;;;;;;;;5013100;28;20060;-86
2023/05/04 14:29:38;;;;;;;3.28;1.63;;;;;;;;;;5014976;28;20141;-86
2023/05/04 14:32:05;;;;;;;4.53;2.35;;;;;;;;;;5012202;28;20053;-86
2023/05/04 14:34:32;;;;;;;10.63;4.97;;;;;;;;;;5012704;28;20060;-87
2023/05/04 14:37:00;;;;;;;19.13;11.90;;;;;;;;;;5013971;28;20141;-89
2023/05/04 14:39:27;;;;;;;3.92;1.70;;;;;;;;;;5012656;28;20141;-86
2023/05/04 14:41:56;;;;;;;20.20;11.32;;;;;;;;;;5012774;28;20069;-86
2023/05/04 14:44:24;;;;;;;1.55;1.15;;;;;;;;;;5012611;28;20054;-87